createdAt,value
2023-05-24T00:02:03.891Z,13.60
2023-05-24T00:05:08.160Z,14.25
2023-05-24T00:08:10.131Z,16.40
2023-05-24T00:11:11.958Z,13.05
2023-05-24T00:14:13.762Z,15.68
2023-05-24T00:17:15.594Z,13.80
2023-05-24T00:20:17.508Z,11.43
2023-05-24T00:23:19.399Z,10.18
2023-05-24T00:26:21.544Z,9.27
2023-05-24T00:29:32.202Z,11.85
2023-05-24T00:32:35.278Z,15.00
2023-05-24T00:35:38.380Z,11.45
2023-05-24T00:38:40.142Z,11.15
2023-05-24T00:41:41.922Z,13.93
2023-05-24T00:44:43.812Z,10.07
2023-05-24T00:47:46.892Z,9.10
2023-05-24T00:50:48.702Z,13.13
2023-05-24T00:53:50.804Z,14.70
2023-05-24T00:56:53.686Z,12.02
2023-05-24T00:59:56.878Z,14.95
2023-05-24T01:02:58.903Z,10.32
2023-05-24T01:06:06.466Z,9.30
2023-05-24T01:09:13.854Z,8.65
2023-05-24T01:12:26.196Z,8.98
2023-05-24T01:15:43.788Z,13.50
2023-05-24T01:18:52.855Z,8.93
2023-05-24T01:22:13.476Z,12.45
2023-05-24T01:25:42.683Z,16.90
2023-05-24T01:28:47.225Z,28.88
2023-05-24T01:31:50.523Z,13.10
2023-05-24T01:34:53.237Z,12.13
2023-05-24T01:37:55.069Z,12.30
2023-05-24T01:41:05.798Z,10.55
2023-05-24T01:44:27.729Z,16.90
2023-05-24T01:47:47.071Z,13.70
2023-05-24T01:50:57.877Z,12.25
2023-05-24T01:54:02.029Z,10.20
2023-05-24T01:57:07.819Z,9.52
2023-05-24T02:00:12.298Z,9.20
2023-05-24T02:03:17.241Z,9.38
2023-05-24T02:06:19.020Z,11.20
2023-05-24T02:09:21.007Z,10.70
2023-05-24T02:12:24.720Z,10.00
2023-05-24T02:15:30.534Z,9.15
2023-05-24T02:18:35.086Z,7.00
2023-05-24T02:21:37.108Z,8.82
2023-05-24T02:24:40.467Z,8.27
2023-05-24T02:27:47.144Z,7.82
2023-05-24T02:30:49.123Z,12.18
2023-05-24T02:33:51.217Z,9.65
2023-05-24T02:36:54.417Z,10.48
2023-05-24T02:39:56.404Z,10.88
2023-05-24T02:42:58.426Z,9.70
2023-05-24T02:46:00.399Z,8.95
2023-05-24T02:49:02.154Z,9.35
2023-05-24T02:52:04.633Z,11.88
2023-05-24T02:55:07.486Z,10.63
2023-05-24T02:58:10.220Z,10.90
2023-05-24T03:01:12.905Z,10.85
2023-05-24T03:04:15.226Z,10.48
2023-05-24T03:07:17.685Z,9.95
2023-05-24T03:10:19.627Z,6.97
2023-05-24T03:13:21.430Z,8.48
2023-05-24T03:16:23.245Z,9.75
2023-05-24T03:19:24.998Z,8.13
2023-05-24T03:22:27.092Z,8.82
2023-05-24T03:25:28.886Z,11.05
2023-05-24T03:28:30.648Z,8.70
2023-05-24T03:31:33.102Z,11.82
2023-05-24T03:34:35.232Z,7.35
2023-05-24T03:37:37.215Z,12.15
2023-05-24T03:40:39.256Z,9.50
2023-05-24T03:43:52.371Z,9.82
2023-05-24T03:46:54.954Z,9.02
2023-05-24T03:49:57.085Z,9.40
2023-05-24T03:52:59.080Z,9.52
2023-05-24T03:56:01.091Z,11.95
2023-05-24T03:59:04.218Z,11.05
2023-05-24T04:02:07.566Z,9.93
2023-05-24T04:05:12.380Z,10.77
2023-05-24T04:08:15.162Z,10.68
2023-05-24T04:11:17.683Z,9.77
2023-05-24T04:14:20.622Z,13.07
2023-05-24T04:17:24.899Z,10.10
2023-05-24T04:20:27.932Z,12.23
2023-05-24T04:23:29.819Z,9.23
2023-05-24T04:26:33.965Z,14.10
2023-05-24T04:29:35.912Z,13.40
2023-05-24T04:32:37.846Z,13.65
2023-05-24T04:35:40.802Z,11.02
2023-05-24T04:38:42.597Z,14.10
2023-05-24T04:41:45.716Z,12.05
2023-05-24T04:44:47.576Z,11.10
2023-05-24T04:47:49.431Z,11.40
2023-05-24T04:50:56.032Z,11.75
2023-05-24T04:53:57.803Z,12.57
2023-05-24T04:56:59.590Z,11.85
2023-05-24T05:00:02.192Z,10.77
2023-05-24T05:03:04.129Z,14.40
2023-05-24T05:06:06.123Z,12.40
2023-05-24T05:09:14.042Z,11.50
2023-05-24T05:15:18.063Z,13.02
2023-05-24T05:18:19.924Z,13.35
2023-05-24T05:21:21.881Z,14.25
2023-05-24T05:24:23.694Z,11.57
2023-05-24T05:27:25.673Z,11.90
2023-05-24T05:30:27.497Z,12.18
2023-05-24T05:33:32.220Z,10.75
2023-05-24T05:36:34.073Z,14.00
2023-05-24T05:39:36.180Z,11.00
2023-05-24T05:42:37.969Z,14.55
2023-05-24T05:45:39.884Z,13.57
2023-05-24T05:48:41.809Z,9.60
2023-05-24T05:51:45.370Z,18.10
2023-05-24T05:54:47.176Z,12.73
2023-05-24T05:57:49.046Z,13.35
2023-05-24T06:00:51.274Z,12.75
2023-05-24T06:03:53.143Z,11.43
2023-05-24T06:06:55.065Z,11.73
2023-05-24T06:09:56.946Z,15.15
2023-05-24T06:12:58.732Z,11.80
2023-05-24T06:16:01.453Z,11.55
2023-05-24T06:19:06.304Z,12.43
2023-05-24T06:22:08.629Z,14.65
2023-05-24T06:25:10.565Z,8.70
2023-05-24T06:28:12.486Z,8.43
2023-05-24T06:31:14.348Z,8.88
2023-05-24T06:34:17.871Z,9.13
2023-05-24T06:37:25.076Z,7.80
2023-05-24T06:40:27.008Z,9.70
2023-05-24T06:43:28.752Z,9.75
2023-05-24T06:46:31.473Z,11.35
2023-05-24T06:49:33.410Z,10.43
2023-05-24T06:52:35.570Z,8.65
2023-05-24T06:55:37.691Z,8.82
2023-05-24T06:58:39.498Z,8.80
2023-05-24T07:01:43.166Z,13.38
2023-05-24T07:04:46.052Z,9.43
2023-05-24T07:07:48.176Z,9.63
2023-05-24T07:10:50.013Z,8.85
2023-05-24T07:13:51.842Z,10.77
2023-05-24T07:16:55.387Z,8.75
2023-05-24T07:19:57.570Z,12.20
2023-05-24T07:23:00.584Z,12.35
2023-05-24T07:26:02.478Z,10.57
2023-05-24T07:29:04.319Z,11.65
2023-05-24T07:32:06.335Z,18.60
2023-05-24T07:35:08.569Z,16.80
2023-05-24T07:38:10.592Z,14.40
2023-05-24T07:41:14.323Z,13.15
2023-05-24T07:44:16.111Z,13.80
2023-05-24T07:47:18.723Z,10.68
2023-05-24T07:50:20.426Z,12.88
2023-05-24T07:53:23.502Z,10.27
2023-05-24T07:56:25.714Z,11.00
2023-05-24T07:59:27.482Z,9.15
2023-05-24T08:02:31.473Z,10.02
2023-05-24T08:05:33.395Z,8.20
2023-05-24T08:08:35.773Z,10.48
2023-05-24T08:11:37.533Z,9.88
2023-05-24T08:14:39.344Z,10.27
2023-05-24T08:17:41.413Z,9.07
2023-05-24T08:20:43.373Z,8.75
2023-05-24T08:23:45.614Z,10.57
2023-05-24T08:26:47.613Z,13.82
2023-05-24T08:29:49.363Z,10.95
2023-05-24T08:32:52.465Z,14.98
2023-05-24T08:35:54.351Z,7.28
2023-05-24T08:38:56.316Z,14.75
2023-05-24T08:42:08.824Z,10.05
2023-05-24T08:45:13.679Z,7.63
2023-05-24T08:48:16.531Z,8.43
2023-05-24T08:51:18.853Z,12.30
2023-05-24T08:54:21.461Z,7.57
2023-05-24T08:57:23.827Z,7.63
2023-05-24T09:00:25.978Z,7.90
2023-05-24T09:03:28.208Z,7.00
2023-05-24T09:06:30.188Z,5.85
2023-05-24T09:09:34.636Z,11.30
2023-05-24T09:12:44.295Z,6.32
2023-05-24T09:15:46.594Z,4.32
2023-05-24T09:18:48.660Z,5.03
2023-05-24T09:21:50.540Z,5.47
2023-05-24T09:24:53.856Z,5.93
2023-05-24T09:27:56.527Z,5.95
2023-05-24T09:31:03.342Z,5.93
2023-05-24T09:34:11.665Z,6.32
2023-05-24T09:37:29.893Z,6.45
2023-05-24T09:40:34.509Z,5.65
2023-05-24T09:43:48.445Z,5.75
2023-05-24T09:46:50.427Z,8.30
2023-05-24T09:49:52.509Z,4.80
2023-05-24T09:52:56.209Z,5.53
2023-05-24T09:55:58.094Z,4.47
2023-05-24T09:59:06.133Z,7.10
2023-05-24T10:02:10.507Z,5.85
2023-05-24T10:05:13.431Z,4.78
2023-05-24T10:08:16.280Z,5.10
2023-05-24T10:11:19.184Z,3.80
2023-05-24T10:14:21.953Z,6.03
2023-05-24T10:17:28.134Z,6.20
2023-05-24T10:20:30.239Z,5.07
2023-05-24T10:23:33.526Z,7.55
2023-05-24T10:26:38.871Z,4.78
2023-05-24T10:29:46.723Z,4.32
2023-05-24T10:32:49.862Z,5.30
2023-05-24T10:35:53.615Z,12.20
2023-05-24T10:38:56.924Z,5.85
2023-05-24T10:42:03.034Z,7.30
2023-05-24T10:45:23.486Z,8.00
2023-05-24T10:48:28.246Z,6.63
2023-05-24T10:51:33.985Z,6.75
2023-05-24T10:54:44.709Z,3.83
2023-05-24T10:57:52.552Z,4.20
2023-05-24T11:00:54.360Z,4.20
2023-05-24T11:04:16.285Z,4.28
2023-05-24T11:07:19.449Z,4.93
2023-05-24T11:10:31.053Z,4.22
2023-05-24T11:13:33.675Z,4.03
2023-05-24T11:16:40.060Z,9.48
2023-05-24T11:19:52.302Z,6.40
2023-05-24T11:22:54.701Z,7.60
2023-05-24T11:25:57.306Z,4.43
2023-05-24T11:29:04.139Z,4.30
2023-05-24T11:32:07.922Z,4.80
2023-05-24T11:35:11.681Z,7.65
2023-05-24T11:38:15.755Z,4.90
2023-05-24T11:41:18.063Z,5.75
2023-05-24T11:44:20.112Z,4.15
2023-05-24T11:47:24.951Z,7.00
2023-05-24T11:50:28.589Z,5.93
2023-05-24T11:53:30.872Z,4.85
2023-05-24T11:56:34.152Z,4.93
2023-05-24T11:59:38.167Z,5.13
2023-05-24T12:02:40.378Z,5.35
2023-05-24T12:05:43.116Z,5.40
2023-05-24T12:08:45.151Z,5.85
2023-05-24T12:11:50.275Z,6.85
2023-05-24T12:14:55.848Z,4.70
2023-05-24T12:17:58.349Z,7.65
2023-05-24T12:21:00.217Z,7.55
2023-05-24T12:24:12.725Z,6.40
2023-05-24T12:27:14.510Z,4.95
2023-05-24T12:30:21.450Z,5.72
2023-05-24T12:33:24.465Z,4.75
2023-05-24T12:36:29.566Z,4.03
2023-05-24T12:39:32.414Z,10.38
2023-05-24T12:42:34.339Z,8.10
2023-05-24T12:45:37.322Z,7.03
2023-05-24T12:48:39.476Z,7.32
2023-05-24T12:51:41.232Z,5.57
2023-05-24T12:54:43.099Z,8.23
2023-05-24T12:57:53.164Z,7.20
2023-05-24T13:00:55.086Z,10.13
2023-05-24T13:03:57.312Z,11.55
2023-05-24T13:06:59.196Z,9.55
2023-05-24T13:10:01.048Z,9.77
2023-05-24T13:13:02.840Z,7.00
2023-05-24T13:16:08.971Z,5.53
2023-05-24T13:19:10.868Z,5.55
2023-05-24T13:22:13.050Z,7.53
2023-05-24T13:25:15.101Z,4.75
2023-05-24T13:28:17.131Z,4.68
2023-05-24T13:31:19.134Z,6.20
2023-05-24T13:34:21.049Z,7.63
2023-05-24T13:37:23.934Z,5.43
2023-05-24T13:40:26.332Z,6.20
2023-05-24T13:43:28.297Z,8.35
2023-05-24T13:46:30.477Z,6.60
2023-05-24T13:49:32.307Z,5.85
2023-05-24T13:52:34.220Z,7.93
2023-05-24T13:55:38.801Z,5.75
2023-05-24T13:58:40.722Z,4.47
2023-05-24T14:01:42.739Z,5.30
2023-05-24T14:04:44.565Z,3.90
2023-05-24T14:07:47.284Z,3.85
2023-05-24T14:10:50.124Z,4.43
2023-05-24T14:16:57.199Z,5.65
2023-05-24T14:19:59.154Z,4.85
2023-05-24T14:23:01.074Z,4.97
2023-05-24T14:26:02.922Z,3.25
2023-05-24T14:29:04.753Z,4.88
2023-05-24T14:32:06.740Z,5.18
2023-05-24T14:35:08.847Z,5.05
2023-05-24T14:38:11.572Z,6.60
2023-05-24T14:41:13.451Z,6.43
2023-05-24T14:44:15.272Z,5.80
2023-05-24T14:47:17.144Z,5.13
2023-05-24T14:50:18.991Z,7.28
2023-05-24T14:53:20.740Z,4.40
2023-05-24T14:56:23.089Z,4.50
2023-05-24T14:59:25.270Z,5.07
2023-05-24T15:02:27.891Z,4.35
2023-05-24T15:05:29.775Z,5.07
2023-05-24T15:08:31.787Z,6.15
2023-05-24T15:11:33.543Z,4.85
2023-05-24T15:14:35.335Z,6.30
2023-05-24T15:17:37.170Z,6.10
2023-05-24T15:20:39.093Z,5.72
2023-05-24T15:23:42.674Z,5.78
2023-05-24T15:26:44.528Z,5.07
2023-05-24T15:29:46.368Z,6.85
2023-05-24T15:32:48.190Z,4.18
2023-05-24T15:35:50.190Z,6.20
2023-05-24T15:38:52.046Z,5.78
2023-05-24T15:41:53.906Z,7.38
2023-05-24T15:44:55.959Z,7.00
2023-05-24T15:47:57.774Z,5.53
2023-05-24T15:51:53.824Z,6.97
2023-05-24T15:54:21.479Z,9.25
2023-05-24T15:57:23.268Z,8.25
2023-05-24T16:00:25.234Z,7.13
2023-05-24T16:03:27.046Z,9.20
2023-05-24T16:06:28.999Z,13.65
2023-05-24T16:09:31.249Z,8.13
2023-05-24T16:12:33.186Z,7.35
2023-05-24T16:15:36.180Z,8.68
2023-05-24T16:18:38.132Z,9.40
2023-05-24T16:21:40.008Z,4.97
2023-05-24T16:24:41.985Z,6.00
2023-05-24T16:27:43.906Z,6.55
2023-05-24T16:30:45.912Z,6.10
2023-05-24T16:33:47.761Z,6.03
2023-05-24T16:36:49.920Z,6.05
2023-05-24T16:39:51.720Z,3.72
2023-05-24T16:42:54.461Z,3.47
2023-05-24T16:45:56.401Z,4.32
2023-05-24T16:48:59.199Z,2.95
2023-05-24T16:52:02.205Z,9.77
2023-05-24T16:55:04.460Z,5.22
2023-05-24T16:58:06.687Z,3.83
2023-05-24T17:01:09.946Z,7.05
2023-05-24T17:04:11.868Z,6.78
2023-05-24T17:07:13.705Z,4.47
2023-05-24T17:10:15.442Z,7.53
2023-05-24T17:13:17.239Z,5.93
2023-05-24T17:16:19.364Z,6.47
2023-05-24T17:19:21.621Z,6.85
2023-05-24T17:22:23.380Z,3.42
2023-05-24T17:25:25.182Z,5.95
2023-05-24T17:28:27.879Z,8.20
2023-05-24T17:31:33.110Z,3.83
2023-05-24T17:34:59.070Z,5.45
2023-05-24T17:41:24.936Z,5.43
2023-05-24T17:44:29.651Z,4.00
2023-05-24T17:47:58.933Z,6.57
2023-05-24T17:51:23.304Z,3.42
2023-05-24T17:57:51.382Z,3.10
2023-05-24T18:04:44.929Z,6.28
2023-05-24T18:11:08.569Z,6.10
2023-05-24T18:14:10.882Z,4.97
2023-05-24T18:17:12.694Z,3.40
2023-05-24T18:20:15.384Z,6.68
2023-05-24T18:23:17.996Z,4.70
2023-05-24T18:26:19.751Z,10.18
2023-05-24T18:29:21.538Z,5.07
2023-05-24T18:32:23.547Z,9.10
2023-05-24T18:35:25.541Z,8.43
2023-05-24T18:38:27.365Z,12.15
2023-05-24T18:41:29.121Z,16.08
2023-05-24T18:44:30.962Z,11.70
2023-05-24T18:47:32.812Z,10.38
2023-05-24T18:50:34.755Z,12.57
2023-05-24T18:53:36.534Z,10.18
2023-05-24T18:56:38.340Z,7.05
2023-05-24T18:59:40.055Z,6.30
2023-05-24T19:02:41.998Z,5.72
2023-05-24T19:05:44.439Z,5.45
2023-05-24T19:08:46.384Z,6.32
2023-05-24T19:11:49.020Z,5.15
2023-05-24T19:14:50.907Z,4.40
2023-05-24T19:17:53.503Z,4.53
2023-05-24T19:20:55.352Z,5.43
2023-05-24T19:23:57.382Z,4.95
2023-05-24T19:27:01.287Z,4.50
2023-05-24T19:30:03.167Z,4.75
2023-05-24T19:33:05.235Z,4.47
2023-05-24T19:36:08.734Z,4.13
2023-05-24T19:39:12.566Z,4.38
2023-05-24T19:42:14.440Z,5.40
2023-05-24T19:45:16.471Z,3.30
2023-05-24T19:48:18.276Z,4.03
2023-05-24T19:51:27.924Z,3.75
2023-05-24T19:54:33.746Z,5.25
2023-05-24T19:57:35.908Z,6.75
2023-05-24T20:00:37.634Z,5.85
2023-05-24T20:03:39.785Z,8.82
2023-05-24T20:06:41.698Z,5.22
2023-05-24T20:09:43.511Z,7.80
2023-05-24T20:12:45.554Z,4.90
2023-05-24T20:15:47.344Z,3.63
2023-05-24T20:18:49.242Z,4.30
2023-05-24T20:21:51.044Z,6.53
2023-05-24T20:24:52.964Z,6.35
2023-05-24T20:27:54.779Z,3.47
2023-05-24T20:30:56.551Z,4.90
2023-05-24T20:33:58.547Z,5.32
2023-05-24T20:37:00.508Z,7.45
2023-05-24T20:40:05.275Z,4.72
2023-05-24T20:43:08.561Z,6.95
2023-05-24T20:46:10.830Z,7.55
2023-05-24T20:49:12.809Z,4.28
2023-05-24T20:52:16.286Z,4.63
2023-05-24T20:55:18.963Z,4.13
2023-05-24T20:58:20.819Z,6.03
2023-05-24T21:01:23.278Z,4.95
2023-05-24T21:04:26.568Z,4.20
2023-05-24T21:07:28.355Z,3.95
2023-05-24T21:10:30.326Z,2.88
2023-05-24T21:13:32.182Z,4.57
2023-05-24T21:16:34.070Z,7.82
2023-05-24T21:19:35.959Z,5.05
2023-05-24T21:22:37.724Z,4.85
2023-05-24T21:25:39.855Z,5.45
2023-05-24T21:28:41.727Z,6.50
2023-05-24T21:31:43.714Z,5.53
2023-05-24T21:34:45.685Z,7.32
2023-05-24T21:37:47.474Z,10.32
2023-05-24T21:40:49.339Z,5.40
2023-05-24T21:43:51.107Z,7.70
2023-05-24T21:46:53.014Z,6.85
2023-05-24T21:49:55.027Z,2.83
2023-05-24T21:52:56.920Z,4.68
2023-05-24T21:55:58.733Z,5.38
2023-05-24T21:59:00.583Z,6.57
2023-05-24T22:02:02.338Z,5.18
2023-05-24T22:05:05.421Z,8.32
2023-05-24T22:08:07.286Z,3.53
2023-05-24T22:11:09.140Z,4.35
2023-05-24T22:14:11.035Z,4.55
2023-05-24T22:17:14.307Z,7.18
2023-05-24T22:20:17.084Z,6.03
2023-05-24T22:23:18.876Z,8.18
2023-05-24T22:26:20.681Z,8.50
2023-05-24T22:29:22.591Z,3.58
2023-05-24T22:32:24.532Z,3.65
2023-05-24T22:35:26.407Z,6.38
2023-05-24T22:38:28.210Z,8.38
2023-05-24T22:41:30.146Z,6.22
2023-05-24T22:44:32.021Z,7.15
2023-05-24T22:47:34.069Z,6.80
2023-05-24T22:50:36.066Z,6.47
2023-05-24T22:53:39.669Z,5.40
2023-05-24T22:56:41.880Z,5.32
2023-05-24T22:59:45.980Z,6.07
2023-05-24T23:02:48.057Z,6.82
2023-05-24T23:05:53.657Z,3.63
2023-05-24T23:08:55.740Z,5.95
2023-05-24T23:11:58.658Z,4.55
2023-05-24T23:15:00.731Z,6.18
2023-05-24T23:18:03.128Z,7.55
2023-05-24T23:21:04.960Z,7.32
2023-05-24T23:24:07.178Z,6.75
2023-05-24T23:27:09.174Z,5.47
2023-05-24T23:30:11.128Z,6.75
2023-05-24T23:33:12.854Z,4.43
2023-05-24T23:36:14.603Z,4.30
2023-05-24T23:39:16.903Z,6.35
2023-05-24T23:42:18.692Z,6.35
2023-05-24T23:45:20.495Z,4.32
2023-05-24T23:48:23.456Z,5.97
2023-05-24T23:51:25.413Z,5.28
2023-05-24T23:54:27.189Z,8.52
2023-05-24T23:57:29.898Z,6.25
